Time;durP1;ratioP1;P1;durP2;ratioP2;P2;SDS_P1;SDS_P2;PMS_P1;PMS_P2;Temp;Humidity;BMP_temperature;BMP_pressure;BME280_temperature;BME280_humidity;BME280_pressure;Samples;Min_cycle;Max_cycle;Signal;HPM_P1;HPM_P2
2022/04/21 00:00:12;;;;;;;;;;;5.50;99.90;;;;;;5133104;27;19920;-72
2022/04/21 00:02:37;;;;;;;;;;;5.60;99.90;;;;;;5132386;27;20274;-71
2022/04/21 00:05:03;;;;;;;;;;;5.60;99.90;;;;;;5132691;27;19926;-72
2022/04/21 00:07:29;;;;;;;;;;;5.60;99.90;;;;;;5131941;27;19947;-72
2022/04/21 00:09:55;;;;;;;;;;;5.60;99.90;;;;;;5132534;27;19954;-72
2022/04/21 00:12:20;;;;;;;;;;;5.60;99.90;;;;;;5132566;27;19995;-72
2022/04/21 00:14:46;;;;;;;;;;;5.60;99.90;;;;;;5113937;27;19969;-72
2022/04/21 00:17:11;;;;;;;;;;;5.60;99.90;;;;;;5113888;27;19916;-71
2022/04/21 00:19:37;;;;;;;;;;;5.60;99.90;;;;;;5132347;27;19916;-72
2022/04/21 00:24:47;;;;;;;;;;;5.70;99.90;;;;;;5132467;27;19970;-72
2022/04/21 00:27:13;;;;;;;;;;;5.60;99.90;;;;;;5132274;27;19997;-72
2022/04/21 00:29:38;;;;;;;;;;;5.70;99.90;;;;;;5132223;27;19916;-71
2022/04/21 00:32:04;;;;;;;;;;;5.70;99.90;;;;;;5132166;28;20009;-71
2022/04/21 00:34:31;;;;;;;;;;;5.70;99.90;;;;;;5132165;28;19967;-72
2022/04/21 00:36:56;;;;;;;;;;;5.70;99.90;;;;;;5131877;28;19911;-71
2022/04/21 00:39:22;;;;;;;;;;;5.60;99.90;;;;;;5113606;28;20283;-71
2022/04/21 00:41:47;;;;;;;;;;;5.60;99.90;;;;;;5113613;28;19908;-72
2022/04/21 00:44:13;;;;;;;;;;;5.60;99.90;;;;;;5113569;28;19949;-72
2022/04/21 00:46:40;;;;;;;;;;;5.60;99.90;;;;;;5132336;28;19913;-71
2022/04/21 00:49:06;;;;;;;;;;;5.70;99.90;;;;;;5131940;28;20255;-71
2022/04/21 00:51:32;;;;;;;;;;;5.70;99.90;;;;;;5113623;28;20268;-71
2022/04/21 00:53:59;;;;;;;;;;;5.60;99.90;;;;;;5131897;28;19922;-71
2022/04/21 00:56:25;;;;;;;;;;;5.60;99.90;;;;;;5132047;28;19916;-72
2022/04/21 00:58:51;;;;;;;;;;;5.60;99.90;;;;;;5131859;28;19912;-72
2022/04/21 01:04:01;;;;;;;;;;;5.60;99.90;;;;;;5131778;28;19972;-72
2022/04/21 01:06:26;;;;;;;;;;;5.60;99.90;;;;;;5113422;28;20362;-72
2022/04/21 01:08:52;;;;;;;;;;;5.60;99.90;;;;;;5113172;28;20367;-71
2022/04/21 01:11:18;;;;;;;;;;;5.60;99.90;;;;;;5132373;28;19923;-72
2022/04/21 01:13:44;;;;;;;;;;;5.60;99.90;;;;;;5131876;28;19908;-71
2022/04/21 01:16:10;;;;;;;;;;;5.50;99.90;;;;;;5113508;28;19923;-72
2022/04/21 01:18:35;;;;;;;;;;;5.50;99.90;;;;;;5134517;27;19938;-71
2022/04/21 01:21:01;;;;;;;;;;;5.50;99.90;;;;;;5136152;27;19923;-72
2022/04/21 01:23:26;;;;;;;;;;;5.50;99.90;;;;;;5135725;27;19911;-71
2022/04/21 01:25:52;;;;;;;;;;;5.50;99.90;;;;;;5135952;27;20339;-71
2022/04/21 01:28:18;;;;;;;;;;;5.60;99.90;;;;;;5135468;27;19911;-72
2022/04/21 01:30:44;;;;;;;;;;;5.50;99.90;;;;;;5135820;27;19919;-71
2022/04/21 01:33:09;;;;;;;;;;;5.50;99.90;;;;;;5135438;27;19913;-72
2022/04/21 01:35:35;;;;;;;;;;;5.50;99.90;;;;;;5116944;27;19919;-72
2022/04/21 01:43:29;;;;;;;;;;;5.60;99.90;;;;;;5135351;27;19915;-71
2022/04/21 01:45:55;;;;;;;;;;;5.50;99.90;;;;;;5135625;27;19915;-71
2022/04/21 01:48:20;;;;;;;;;;;5.60;99.90;;;;;;5135224;27;19907;-72
2022/04/21 01:50:46;;;;;;;;;;;5.60;99.90;;;;;;5135453;27;19919;-72
2022/04/21 01:53:11;;;;;;;;;;;5.50;99.90;;;;;;5135079;27;19956;-72
2022/04/21 01:55:37;;;;;;;;;;;5.50;99.90;;;;;;5135203;27;20255;-72
2022/04/21 01:58:02;;;;;;;;;;;5.50;99.90;;;;;;5116566;27;19964;-72
2022/04/21 02:00:28;;;;;;;;;;;5.50;99.90;;;;;;5135145;27;20421;-72
2022/04/21 02:02:53;;;;;;;;;;;5.50;99.90;;;;;;5116677;27;20291;-72
2022/04/21 02:05:19;;;;;;;;;;;5.50;99.90;;;;;;5135092;27;20432;-72
2022/04/21 02:07:45;;;;;;;;;;;5.50;99.90;;;;;;5116369;27;19956;-72
2022/04/21 02:10:12;;;;;;;;;;;5.50;99.90;;;;;;5134702;27;19924;-72
2022/04/21 02:12:37;;;;;;;;;;;5.40;99.90;;;;;;5116235;27;19976;-72
2022/04/21 02:15:03;;;;;;;;;;;5.50;99.90;;;;;;5135019;27;20395;-72
2022/04/21 02:17:31;;;;;;;;;;;5.50;99.90;;;;;;5134724;27;19915;-72
2022/04/21 02:19:56;;;;;;;;;;;5.50;99.90;;;;;;5134915;27;19920;-72
2022/04/21 02:22:22;;;;;;;;;;;5.40;99.90;;;;;;5116050;27;19907;-72
2022/04/21 02:24:47;;;;;;;;;;;5.50;99.90;;;;;;5134658;27;19960;-72
2022/04/21 02:27:13;;;;;;;;;;;5.50;99.90;;;;;;5134399;27;20390;-72
2022/04/21 02:29:38;;;;;;;;;;;5.50;99.90;;;;;;5133589;27;20015;-72
2022/04/21 02:32:04;;;;;;;;;;;5.50;99.90;;;;;;5134251;27;20090;-72
2022/04/21 02:34:30;;;;;;;;;;;5.60;99.90;;;;;;5098911;27;19927;-72
2022/04/21 02:36:56;;;;;;;;;;;5.50;99.90;;;;;;5134086;27;19915;-72
2022/04/21 02:39:21;;;;;;;;;;;5.50;99.90;;;;;;5134222;27;19915;-72
2022/04/21 02:41:47;;;;;;;;;;;5.60;99.90;;;;;;5115652;27;20014;-72
2022/04/21 02:44:12;;;;;;;;;;;5.50;99.90;;;;;;5134183;27;19907;-72
2022/04/21 02:46:38;;;;;;;;;;;5.50;99.90;;;;;;5115570;27;20329;-72
2022/04/21 02:49:04;;;;;;;;;;;5.50;99.90;;;;;;5134046;27;19915;-72
2022/04/21 02:51:32;;;;;;;;;;;5.60;99.90;;;;;;5134272;27;19919;-72
2022/04/21 02:59:26;;;;;;;;;;;5.50;99.90;;;;;;5134252;27;19972;-72
2022/04/21 03:01:52;;;;;;;;;;;5.50;99.90;;;;;;5133705;27;20321;-72
2022/04/21 03:04:17;;;;;;;;;;;5.40;99.90;;;;;;5134093;27;19961;-72
2022/04/21 03:06:43;;;;;;;;;;;5.40;99.90;;;;;;5133878;27;19951;-71
2022/04/21 03:09:08;;;;;;;;;;;5.40;99.90;;;;;;5115449;27;19960;-72
2022/04/21 03:11:34;;;;;;;;;;;5.40;99.90;;;;;;5133501;27;19918;-72
2022/04/21 03:13:59;;;;;;;;;;;5.40;99.90;;;;;;5133588;27;20291;-72
2022/04/21 03:16:25;;;;;;;;;;;5.40;99.90;;;;;;5133384;27;19937;-72
2022/04/21 03:18:50;;;;;;;;;;;5.40;99.90;;;;;;5133400;27;20017;-72
2022/04/21 03:26:44;;;;;;;;;;;5.30;99.90;;;;;;5133249;27;20003;-72
2022/04/21 03:29:09;;;;;;;;;;;5.20;99.90;;;;;;5133335;27;19998;-72
2022/04/21 03:31:35;;;;;;;;;;;6.60;99.90;;;;;;5133154;27;19962;-72
2022/04/21 03:34:02;;;;;;;;;;;5.20;99.90;;;;;;5133322;27;20330;-71
2022/04/21 03:36:28;;;;;;;;;;;5.20;99.90;;;;;;5133166;27;20347;-71
2022/04/21 03:38:53;;;;;;;;;;;5.20;99.90;;;;;;5133136;27;19912;-71
2022/04/21 03:41:18;;;;;;;;;;;5.10;99.90;;;;;;5133517;27;19919;-71
2022/04/21 03:43:44;;;;;;;;;;;5.20;99.90;;;;;;5133225;27;20425;-71
2022/04/21 03:46:09;;;;;;;;;;;5.20;99.90;;;;;;5132871;27;19919;-71
2022/04/21 03:48:35;;;;;;;;;;;5.20;99.90;;;;;;5132876;27;20393;-71
2022/04/21 03:51:01;;;;;;;;;;;5.20;99.90;;;;;;5133229;27;19953;-72
2022/04/21 03:53:26;;;;;;;;;;;5.20;99.90;;;;;;5132763;27;19958;-71
2022/04/21 03:55:52;;;;;;;;;;;5.20;99.90;;;;;;5132971;27;19922;-71
2022/04/21 03:58:17;;;;;;;;;;;5.20;99.90;;;;;;5132719;27;19919;-71
2022/04/21 04:00:43;;;;;;;;;;;5.10;99.90;;;;;;5133176;27;19957;-71
2022/04/21 04:03:08;;;;;;;;;;;5.20;99.90;;;;;;5132708;27;20398;-71
2022/04/21 04:05:34;;;;;;;;;;;5.20;99.90;;;;;;5133188;27;20263;-71
2022/04/21 04:10:52;;;;;;;;;;;5.10;99.90;;;;;;5132780;27;19964;-71
2022/04/21 04:13:27;;;;;;;;;;;5.10;99.90;;;;;;5132397;27;20234;-71
2022/04/21 04:15:54;;;;;;;;;;;5.10;99.90;;;;;;5132887;27;19923;-71
2022/04/21 04:18:20;;;;;;;;;;;5.10;99.90;;;;;;5132292;27;19907;-71
2022/04/21 04:20:46;;;;;;;;;;;5.00;99.90;;;;;;5114280;27;19920;-71
2022/04/21 04:23:15;;;;;;;;;;;5.00;99.90;;;;;;5132336;27;19979;-71
2022/04/21 04:25:41;;;;;;;;;;;5.00;99.90;;;;;;5132686;27;19923;-71
2022/04/21 04:28:06;;;;;;;;;;;5.00;99.90;;;;;;5132141;27;19916;-72
2022/04/21 04:30:32;;;;;;;;;;;5.00;99.90;;;;;;5132592;27;19998;-71
2022/04/21 04:32:57;;;;;;;;;;;4.90;99.90;;;;;;5132094;28;19999;-71
2022/04/21 04:35:25;;;;;;;;;;;4.90;99.90;;;;;;5113853;28;20275;-71
2022/04/21 04:37:51;;;;;;;;;;;5.00;99.90;;;;;;5132149;28;19980;-71
2022/04/21 04:40:17;;;;;;;;;;;5.00;99.90;;;;;;5132174;28;19958;-71
2022/04/21 04:42:43;;;;;;;;;;;5.00;99.90;;;;;;5132169;28;19965;-72
2022/04/21 04:47:53;;;;;;;;;;;4.90;99.90;;;;;;5132068;28;19914;-72
2022/04/21 04:50:18;;;;;;;;;;;4.90;99.90;;;;;;5132381;28;19915;-72
2022/04/21 04:52:44;;;;;;;;;;;5.00;99.90;;;;;;5133509;27;19998;-72
2022/04/21 04:55:10;;;;;;;;;;;4.90;99.90;;;;;;5117935;27;19922;-71
2022/04/21 04:57:36;;;;;;;;;;;5.00;99.90;;;;;;5136125;27;19950;-72
2022/04/21 05:00:02;;;;;;;;;;;5.00;99.90;;;;;;5117957;27;19962;-72
2022/04/21 05:02:28;;;;;;;;;;;4.90;99.90;;;;;;5136042;27;20393;-72
2022/04/21 05:04:53;;;;;;;;;;;5.00;99.90;;;;;;5117724;27;20006;-72
2022/04/21 05:07:19;;;;;;;;;;;6.30;99.90;;;;;;5135876;27;19930;-71
2022/04/21 05:09:44;;;;;;;;;;;5.00;99.90;;;;;;5117308;27;19957;-70
2022/04/21 05:12:10;;;;;;;;;;;5.00;99.90;;;;;;5117188;27;19908;-70
2022/04/21 05:14:36;;;;;;;;;;;5.00;99.90;;;;;;5136199;27;19934;-71
2022/04/21 05:17:02;;;;;;;;;;;5.00;99.90;;;;;;5135664;27;20006;-71
2022/04/21 05:19:27;;;;;;;;;;;5.10;99.90;;;;;;5135796;27;20010;-71
2022/04/21 05:21:53;;;;;;;;;;;5.10;99.90;;;;;;5135872;27;20291;-71
2022/04/21 05:24:19;;;;;;;;;;;5.10;99.90;;;;;;5135994;27;19919;-70
2022/04/21 05:26:45;;;;;;;;;;;5.10;99.90;;;;;;5135582;27;19914;-71
2022/04/21 05:31:59;;;;;;;;;;;5.00;99.90;;;;;;5135904;27;20245;-71
2022/04/21 05:34:25;;;;;;;;;;;5.00;99.90;;;;;;5135444;27;19920;-72
2022/04/21 05:36:51;;;;;;;;;;;5.10;99.90;;;;;;5135523;27;20359;-71
2022/04/21 05:39:16;;;;;;;;;;;5.10;99.90;;;;;;5135487;27;19926;-71
2022/04/21 05:41:43;;;;;;;;;;;5.00;99.90;;;;;;5135589;27;19907;-72
2022/04/21 05:44:10;;;;;;;;;;;5.00;99.90;;;;;;5135606;27;19911;-72
2022/04/21 05:46:35;;;;;;;;;;;5.00;99.90;;;;;;5135297;27;20343;-72
2022/04/21 05:49:01;;;;;;;;;;;4.90;99.90;;;;;;5135080;27;19907;-72
2022/04/21 05:51:27;;;;;;;;;;;5.00;99.90;;;;;;5116768;27;19987;-72
2022/04/21 05:53:53;;;;;;;;;;;5.00;99.90;;;;;;5135074;27;19990;-72
2022/04/21 05:56:18;;;;;;;;;;;5.10;99.90;;;;;;5135656;27;19920;-72
2022/04/21 05:58:44;;;;;;;;;;;5.10;99.90;;;;;;5134961;27;20325;-72
2022/04/21 06:01:10;;;;;;;;;;;5.20;99.90;;;;;;5116590;27;19919;-73
2022/04/21 06:03:37;;;;;;;;;;;5.30;99.90;;;;;;5133934;27;19998;-72
2022/04/21 06:06:03;;;;;;;;;;;5.30;99.90;;;;;;5134751;27;19922;-71
2022/04/21 06:08:29;;;;;;;;;;;5.40;99.90;;;;;;5134536;27;19907;-72
2022/04/21 06:10:57;;;;;;;;;;;5.40;99.90;;;;;;5116308;27;19927;-72
2022/04/21 06:13:26;;;;;;;;;;;5.40;99.90;;;;;;5116708;27;20427;-72
2022/04/21 06:15:52;;;;;;;;;;;5.50;99.90;;;;;;5134664;27;19969;-71
2022/04/21 06:18:18;;;;;;;;;;;5.50;99.90;;;;;;5134718;27;19912;-71
2022/04/21 06:20:46;;;;;;;;;;;5.50;99.90;;;;;;5134932;27;20350;-72
2022/04/21 06:23:12;;;;;;;;;;;5.50;99.90;;;;;;5134788;27;20316;-72
2022/04/21 06:25:38;;;;;;;;;;;5.60;99.90;;;;;;5116341;27;19915;-72
2022/04/21 06:28:03;;;;;;;;;;;5.60;99.90;;;;;;5116145;27;19949;-72
2022/04/21 06:30:29;;;;;;;;;;;5.50;99.90;;;;;;5134929;27;19962;-72
2022/04/21 06:32:54;;;;;;;;;;;5.60;99.90;;;;;;5134326;27;19915;-71
2022/04/21 06:35:20;;;;;;;;;;;5.60;99.90;;;;;;5134525;27;19916;-72
2022/04/21 06:37:46;;;;;;;;;;;5.80;99.90;;;;;;5134261;27;19907;-72
2022/04/21 06:40:12;;;;;;;;;;;5.70;99.90;;;;;;5134379;27;20288;-72
2022/04/21 06:42:37;;;;;;;;;;;5.80;99.90;;;;;;5115716;27;19908;-72
2022/04/21 06:48:02;;;;;;;;;;;5.90;99.90;;;;;;5134421;27;20376;-72
2022/04/21 06:50:38;;;;;;;;;;;6.00;99.90;;;;;;5134447;27;19915;-72
2022/04/21 06:53:08;;;;;;;;;;;6.00;99.90;;;;;;5134194;27;20369;-72
2022/04/21 06:55:33;;;;;;;;;;;6.00;99.90;;;;;;5115384;27;19920;-72
2022/04/21 06:57:59;;;;;;;;;;;6.00;99.90;;;;;;5133859;27;19914;-72
2022/04/21 07:00:26;;;;;;;;;;;6.10;99.90;;;;;;5134077;27;19923;-72
2022/04/21 07:02:56;;;;;;;;;;;6.10;99.90;;;;;;5133661;27;19999;-72
2022/04/21 07:05:23;;;;;;;;;;;6.20;99.90;;;;;;5134007;27;19915;-72
2022/04/21 07:07:49;;;;;;;;;;;6.20;99.90;;;;;;5115333;27;20066;-72
2022/04/21 07:10:15;;;;;;;;;;;6.30;99.90;;;;;;5133700;27;20278;-72
2022/04/21 07:12:41;;;;;;;;;;;6.50;99.90;;;;;;5115050;27;19914;-72
2022/04/21 07:15:07;;;;;;;;;;;6.50;99.90;;;;;;5114875;27;19919;-72
2022/04/21 07:17:33;;;;;;;;;;;6.60;99.90;;;;;;5133624;27;20465;-73
2022/04/21 07:19:59;;;;;;;;;;;6.70;99.90;;;;;;5133596;27;19936;-72
2022/04/21 07:22:25;;;;;;;;;;;6.70;99.90;;;;;;5133471;27;19921;-73
2022/04/21 07:24:54;;;;;;;;;;;8.10;99.90;;;;;;5133256;27;19923;-72
2022/04/21 07:27:20;;;;;;;;;;;6.60;99.90;;;;;;5133430;27;20386;-72
2022/04/21 07:29:46;;;;;;;;;;;6.50;99.90;;;;;;5133204;27;20367;-73
2022/04/21 07:32:11;;;;;;;;;;;6.60;99.90;;;;;;5115208;27;19921;-72
2022/04/21 07:34:37;;;;;;;;;;;6.50;99.90;;;;;;5133264;27;20003;-72
2022/04/21 07:37:03;;;;;;;;;;;6.50;99.90;;;;;;5133007;27;19911;-72
2022/04/21 07:39:29;;;;;;;;;;;6.50;99.90;;;;;;5114474;27;20434;-72
2022/04/21 07:41:56;;;;;;;;;;;6.50;99.90;;;;;;5132951;27;19955;-72
2022/04/21 07:44:23;;;;;;;;;;;6.60;99.90;;;;;;5132934;27;19922;-73
2022/04/21 07:46:48;;;;;;;;;;;6.60;99.90;;;;;;5114214;27;19907;-72
2022/04/21 07:54:43;;;;;;;;;;;6.80;99.90;;;;;;5133100;27;20372;-72
2022/04/21 07:57:09;;;;;;;;;;;6.80;99.90;;;;;;5114157;27;20378;-71
2022/04/21 07:59:35;;;;;;;;;;;6.80;99.90;;;;;;5132398;27;19929;-72
2022/04/21 08:02:01;;;;;;;;;;;6.90;99.90;;;;;;5132671;27;19908;-72
2022/04/21 08:04:27;;;;;;;;;;;7.10;99.90;;;;;;5132792;27;19923;-72
2022/04/21 08:06:54;;;;;;;;;;;7.20;99.90;;;;;;5132660;27;20052;-73
2022/04/21 08:09:19;;;;;;;;;;;7.20;99.90;;;;;;5132665;27;19915;-71
2022/04/21 08:11:44;;;;;;;;;;;7.30;99.90;;;;;;5132489;27;19907;-72
2022/04/21 08:14:10;;;;;;;;;;;7.40;99.90;;;;;;5132386;27;19930;-72
2022/04/21 08:16:35;;;;;;;;;;;7.30;99.90;;;;;;5113653;27;19947;-72
2022/04/21 08:19:01;;;;;;;;;;;7.30;99.90;;;;;;5132428;27;20351;-72
2022/04/21 08:21:26;;;;;;;;;;;7.30;99.90;;;;;;5132257;27;19912;-72
2022/04/21 08:23:52;;;;;;;;;;;7.40;99.90;;;;;;5132350;27;19989;-72
2022/04/21 08:34:30;;;;;;;;;;;7.10;99.90;;;;;;5132226;28;20005;-72
2022/04/21 08:36:56;;;;;;;;;;;7.10;99.90;;;;;;5113498;28;19912;-72
2022/04/21 08:39:21;;;;;;;;;;;7.00;99.90;;;;;;5113795;28;19964;-73
2022/04/21 08:41:48;;;;;;;;;;;7.10;99.90;;;;;;5132191;28;19918;-73
2022/04/21 08:44:17;;;;;;;;;;;7.10;99.90;;;;;;5132109;28;19907;-73
2022/04/21 08:46:43;;;;;;;;;;;7.10;99.90;;;;;;5113651;28;20416;-73
2022/04/21 08:49:10;;;;;;;;;;;7.10;99.90;;;;;;5132138;28;20003;-73
2022/04/21 08:51:35;;;;;;;;;;;7.00;99.90;;;;;;5132069;28;19907;-73
2022/04/21 08:54:02;;;;;;;;;;;7.00;99.90;;;;;;5132090;28;19907;-73
2022/04/21 08:56:28;;;;;;;;;;;6.90;99.90;;;;;;5113496;28;19919;-73
2022/04/21 08:58:54;;;;;;;;;;;6.90;99.90;;;;;;5132074;28;20290;-73
2022/04/21 09:01:19;;;;;;;;;;;6.90;99.90;;;;;;5132676;28;20391;-73
2022/04/21 09:03:46;;;;;;;;;;;6.80;99.90;;;;;;5113545;28;19929;-73
2022/04/21 09:06:11;;;;;;;;;;;6.70;99.90;;;;;;5132406;28;19964;-73
2022/04/21 09:08:37;;;;;;;;;;;6.70;99.90;;;;;;5132055;28;19915;-73
2022/04/21 09:11:02;;;;;;;;;;;6.80;99.90;;;;;;5132299;28;19926;-72
2022/04/21 09:13:38;;;;;;;;;;;6.90;99.90;;;;;;5132573;28;19914;-73
2022/04/21 09:16:05;;;;;;;;;;;6.90;99.90;;;;;;5131757;28;19972;-73
2022/04/21 09:18:36;;;;;;;;;;;6.90;99.90;;;;;;5132099;28;19911;-72
2022/04/21 09:21:06;;;;;;;;;;;6.90;99.90;;;;;;5113667;28;19927;-72
2022/04/21 09:23:33;;;;;;;;;;;7.00;99.90;;;;;;5131975;28;20072;-74
2022/04/21 09:26:05;;;;;;;;;;;7.00;99.90;;;;;;5132175;28;19911;-73
2022/04/21 09:28:30;;;;;;;;;;;7.00;99.90;;;;;;5131804;28;20274;-73
2022/04/21 09:30:57;;;;;;;;;;;7.00;99.90;;;;;;5113385;28;19918;-71
2022/04/21 09:33:30;;;;;;;;;;;6.90;99.90;;;;;;5131697;28;20006;-72
2022/04/21 09:35:56;;;;;;;;;;;6.90;99.90;;;;;;5132070;28;19915;-73
2022/04/21 09:38:22;;;;;;;;;;;6.90;99.90;;;;;;5132344;27;19922;-73
2022/04/21 09:40:48;;;;;;;;;;;7.10;99.90;;;;;;5135263;27;19912;-73
2022/04/21 09:43:24;;;;;;;;;;;7.00;99.90;;;;;;5135359;27;19958;-72
2022/04/21 09:46:08;;;;;;;;;;;7.00;99.90;;;;;;5135689;27;19911;-73
2022/04/21 09:48:33;;;;;;;;;;;7.20;99.90;;;;;;5135118;27;19911;-72
2022/04/21 09:51:08;;;;;;;;;;;7.30;99.90;;;;;;5116960;27;20363;-72
2022/04/21 09:54:01;;;;;;;;;;;7.40;99.90;;;;;;5135024;27;19919;-72
2022/04/21 09:56:37;;;;;;;;;;;7.40;99.90;;;;;;5134915;27;20072;-73
2022/04/21 09:59:03;;;;;;;;;;;7.40;99.90;;;;;;5134973;27;20005;-73
2022/04/21 10:01:29;;;;;;;;;;;7.40;99.90;;;;;;5135062;27;19911;-72
2022/04/21 10:03:55;;;;;;;;;;;7.30;99.90;;;;;;5134726;27;19952;-73
2022/04/21 10:06:22;;;;;;;;;;;7.30;99.90;;;;;;5116423;27;19996;-73
2022/04/21 10:08:50;;;;;;;;;;;7.20;99.90;;;;;;5116132;27;19930;-73
2022/04/21 10:11:16;;;;;;;;;;;7.20;99.90;;;;;;5135250;27;19923;-73
2022/04/21 10:13:44;;;;;;;;;;;7.20;99.90;;;;;;5134660;27;19908;-73
2022/04/21 10:16:11;;;;;;;;;;;7.20;99.90;;;;;;5135032;27;20002;-73
2022/04/21 10:18:37;;;;;;;;;;;7.20;99.90;;;;;;5134674;27;20287;-73
2022/04/21 10:21:03;;;;;;;;;;;7.20;99.90;;;;;;5116417;27;19922;-72
2022/04/21 10:23:29;;;;;;;;;;;7.20;99.90;;;;;;5116548;27;20378;-73
2022/04/21 10:25:59;;;;;;;;;;;7.20;99.90;;;;;;5134983;27;19916;-72
2022/04/21 10:28:33;;;;;;;;;;;7.20;99.90;;;;;;5134514;27;19915;-73
2022/04/21 10:31:19;;;;;;;;;;;7.30;99.90;;;;;;5116246;27;20433;-73
2022/04/21 10:33:55;;;;;;;;;;;7.40;99.90;;;;;;5115725;27;20370;-72
2022/04/21 10:36:41;;;;;;;;;;;7.60;99.90;;;;;;5134489;27;20010;-72
2022/04/21 10:39:16;;;;;;;;;;;7.50;99.90;;;;;;5115806;27;19911;-72
2022/04/21 10:41:41;;;;;;;;;;;7.50;99.90;;;;;;5115953;27;19956;-73
2022/04/21 10:44:14;;;;;;;;;;;7.50;99.90;;;;;;5115803;27;20320;-73
2022/04/21 10:46:39;;;;;;;;;;;7.50;99.90;;;;;;5134515;27;20609;-73
2022/04/21 10:49:05;;;;;;;;;;;7.50;99.90;;;;;;5134007;27;19995;-73
2022/04/21 10:57:31;;;;;;;;;;;7.40;99.90;;;;;;5129199;27;19964;-72
2022/04/21 11:00:08;;;;;;;;;;;7.30;99.90;;;;;;5134150;27;19927;-73
2022/04/21 11:02:44;;;;;;;;;;;7.30;99.90;;;;;;5133786;27;19908;-72
2022/04/21 11:05:21;;;;;;;;;;;7.40;99.90;;;;;;5134069;27;20362;-72
2022/04/21 11:07:51;;;;;;;;;;;7.30;99.90;;;;;;5133672;27;20389;-74
2022/04/21 11:10:26;;;;;;;;;;;7.50;99.90;;;;;;5134009;27;20014;-74
2022/04/21 11:12:52;;;;;;;;;;;7.60;99.90;;;;;;5133987;27;19918;-74
2022/04/21 11:15:37;;;;;;;;;;;7.70;99.90;;;;;;5133999;27;19919;-71
2022/04/21 11:18:09;;;;;;;;;;;7.60;99.90;;;;;;5133660;27;20010;-73
2022/04/21 11:20:35;;;;;;;;;;;7.50;99.90;;;;;;5115100;27;20267;-72
2022/04/21 11:23:01;;;;;;;;;;;7.40;99.90;;;;;;5133429;27;20351;-73
2022/04/21 11:25:31;;;;;;;;;;;7.30;99.90;;;;;;5133872;27;19936;-72
2022/04/21 11:27:57;;;;;;;;;;;7.30;99.90;;;;;;5133345;27;20338;-73
2022/04/21 11:30:22;;;;;;;;;;;7.20;99.90;;;;;;5133793;27;20006;-72
2022/04/21 11:32:52;;;;;;;;;;;7.20;99.90;;;;;;5133097;27;20383;-75
2022/04/21 11:35:18;;;;;;;;;;;7.20;99.90;;;;;;5133286;27;19923;-72
2022/04/21 11:37:47;;;;;;;;;;;7.10;99.90;;;;;;5114609;27;19960;-72
2022/04/21 11:40:19;;;;;;;;;;;7.20;99.90;;;;;;5133521;27;19936;-73
2022/04/21 11:42:45;;;;;;;;;;;7.20;99.90;;;;;;5133143;27;20048;-73
2022/04/21 11:45:10;;;;;;;;;;;7.20;99.90;;;;;;5133297;27;19964;-73
2022/04/21 11:47:38;;;;;;;;;;;7.10;99.90;;;;;;5132938;27;19908;-73
2022/04/21 11:50:03;;;;;;;;;;;7.10;99.90;;;;;;5133134;27;20216;-73
2022/04/21 11:52:29;;;;;;;;;;;7.10;99.90;;;;;;5132728;27;19915;-73
2022/04/21 11:55:01;;;;;;;;;;;7.10;99.90;;;;;;5114340;27;19965;-73
2022/04/21 11:57:42;;;;;;;;;;;7.10;99.90;;;;;;5132729;27;20391;-72
2022/04/21 12:00:08;;;;;;;;;;;7.10;99.90;;;;;;5105591;27;19920;-69
2022/04/21 12:08:06;;;;;;;;;;;7.50;99.90;;;;;;5092594;28;19919;-69
2022/04/21 12:10:31;;;;;;;;;;;7.50;99.90;;;;;;5110088;27;19928;-68
2022/04/21 12:12:57;;;;;;;;;;;7.60;99.90;;;;;;5100577;28;20299;-68
2022/04/21 12:15:30;;;;;;;;;;;7.50;99.90;;;;;;5099380;28;20014;-68
2022/04/21 12:17:59;;;;;;;;;;;7.50;99.90;;;;;;5093601;28;20054;-71
2022/04/21 12:20:25;;;;;;;;;;;7.40;99.90;;;;;;5098282;28;20015;-69
2022/04/21 12:22:50;;;;;;;;;;;7.50;99.90;;;;;;5081745;28;20049;-70
2022/04/21 12:25:16;;;;;;;;;;;7.50;99.90;;;;;;5096256;28;19923;-73
2022/04/21 12:27:42;;;;;;;;;;;7.40;99.90;;;;;;5110230;28;19915;-73
2022/04/21 12:30:08;;;;;;;;;;;7.40;99.90;;;;;;5093387;28;20286;-73
2022/04/21 12:32:35;;;;;;;;;;;7.30;99.90;;;;;;5093516;28;19907;-73
2022/04/21 12:35:06;;;;;;;;;;;7.30;99.90;;;;;;5093321;28;20321;-72
2022/04/21 12:37:31;;;;;;;;;;;7.30;99.90;;;;;;5111675;28;19935;-72
2022/04/21 12:40:01;;;;;;;;;;;7.30;99.90;;;;;;5111935;28;19919;-72
2022/04/21 12:42:28;;;;;;;;;;;7.30;99.90;;;;;;5111894;28;19919;-73
2022/04/21 12:44:53;;;;;;;;;;;7.30;99.90;;;;;;5111318;28;19920;-73
2022/04/21 12:47:20;;;;;;;;;;;7.30;99.90;;;;;;5111778;28;20306;-73
2022/04/21 12:49:52;;;;;;;;;;;7.30;99.90;;;;;;5112053;28;20414;-73
2022/04/21 12:52:28;;;;;;;;;;;7.30;99.90;;;;;;5111817;28;19955;-73
2022/04/21 12:54:53;;;;;;;;;;;7.30;99.90;;;;;;5093478;28;19915;-72
2022/04/21 12:57:19;;;;;;;;;;;7.30;99.90;;;;;;5111561;28;20011;-72
2022/04/21 12:59:47;;;;;;;;;;;7.30;99.90;;;;;;5111824;28;19927;-72
2022/04/21 13:02:15;;;;;;;;;;;7.50;99.90;;;;;;5093475;28;19958;-72
2022/04/21 13:04:41;;;;;;;;;;;7.50;99.90;;;;;;5111630;28;19916;-72
2022/04/21 13:07:09;;;;;;;;;;;7.50;99.90;;;;;;5111818;28;19976;-72
2022/04/21 13:09:35;;;;;;;;;;;7.60;99.90;;;;;;5092792;28;19920;-72
2022/04/21 13:12:00;;;;;;;;;;;7.60;99.90;;;;;;5111473;28;20317;-72
2022/04/21 13:14:26;;;;;;;;;;;7.60;99.90;;;;;;5113879;28;20381;-72
2022/04/21 13:16:51;;;;;;;;;;;7.60;99.90;;;;;;5115451;28;19920;-71
2022/04/21 13:19:17;;;;;;;;;;;7.60;99.90;;;;;;5097266;28;20263;-72
2022/04/21 13:21:57;;;;;;;;;;;7.60;99.90;;;;;;5096745;28;20023;-72
2022/04/21 13:24:24;;;;;;;;;;;7.70;99.90;;;;;;5096868;28;19920;-72
2022/04/21 13:26:49;;;;;;;;;;;7.80;99.90;;;;;;5115083;28;19908;-72
2022/04/21 13:29:15;;;;;;;;;;;7.80;99.90;;;;;;5115345;28;19918;-73
2022/04/21 13:34:24;;;;;;;;;;;7.90;99.90;;;;;;5115227;28;19922;-73
2022/04/21 13:36:50;;;;;;;;;;;7.90;99.90;;;;;;5096052;28;20002;-73
2022/04/21 13:39:15;;;;;;;;;;;8.00;99.90;;;;;;5114779;28;19930;-73
2022/04/21 13:41:41;;;;;;;;;;;8.00;99.90;;;;;;5114811;28;19908;-73
2022/04/21 13:44:07;;;;;;;;;;;8.10;99.90;;;;;;5114900;28;19914;-73
2022/04/21 13:46:36;;;;;;;;;;;8.10;99.90;;;;;;5114813;28;20238;-73
2022/04/21 13:49:02;;;;;;;;;;;8.10;99.90;;;;;;5114795;28;20283;-73
2022/04/21 13:51:27;;;;;;;;;;;8.00;99.90;;;;;;5096286;28;20279;-73
2022/04/21 13:53:55;;;;;;;;;;;8.00;99.90;;;;;;5096369;28;19911;-73
2022/04/21 13:56:24;;;;;;;;;;;8.00;99.90;;;;;;5114757;28;19959;-72
2022/04/21 13:58:50;;;;;;;;;;;8.10;99.90;;;;;;5095991;28;19907;-73
2022/04/21 14:01:16;;;;;;;;;;;8.10;99.90;;;;;;5096246;28;20392;-73
2022/04/21 14:03:42;;;;;;;;;;;8.00;99.90;;;;;;5114667;28;19911;-73
2022/04/21 14:06:07;;;;;;;;;;;8.10;99.90;;;;;;5096701;28;20288;-73
2022/04/21 14:08:34;;;;;;;;;;;8.00;99.90;;;;;;5114873;28;20296;-73
2022/04/21 14:10:59;;;;;;;;;;;7.90;99.90;;;;;;5114281;28;19920;-73
2022/04/21 14:13:25;;;;;;;;;;;7.90;99.90;;;;;;5114472;28;19912;-74
2022/04/21 14:15:51;;;;;;;;;;;7.80;99.90;;;;;;5114756;28;19920;-73
2022/04/21 14:18:17;;;;;;;;;;;7.70;99.90;;;;;;5114468;28;20271;-73
2022/04/21 14:20:43;;;;;;;;;;;7.80;99.90;;;;;;5114394;28;19922;-73
2022/04/21 14:23:08;;;;;;;;;;;7.80;99.90;;;;;;5114321;28;20034;-73
2022/04/21 14:25:34;;;;;;;;;;;7.80;99.90;;;;;;5094726;28;19958;-73
2022/04/21 14:27:59;;;;;;;;;;;7.70;99.90;;;;;;5113815;28;19908;-73
2022/04/21 14:30:25;;;;;;;;;;;7.80;99.90;;;;;;5095725;28;19964;-73
2022/04/21 14:32:50;;;;;;;;;;;7.80;99.90;;;;;;5113931;28;19908;-73
2022/04/21 14:35:16;;;;;;;;;;;7.80;99.90;;;;;;5114234;28;19959;-73
2022/04/21 14:45:54;;;;;;;;;;;8.00;99.90;;;;;;5113617;28;19922;-73
2022/04/21 14:48:22;;;;;;;;;;;8.00;99.90;;;;;;5113844;28;19908;-72
2022/04/21 14:50:47;;;;;;;;;;;8.00;99.90;;;;;;5113962;28;20395;-72
2022/04/21 14:53:13;;;;;;;;;;;8.00;99.90;;;;;;5113655;28;19954;-73
2022/04/21 14:55:40;;;;;;;;;;;8.00;99.90;;;;;;5113780;28;19962;-73
2022/04/21 14:58:05;;;;;;;;;;;8.00;99.90;;;;;;5113439;28;20006;-74
2022/04/21 15:00:31;;;;;;;;;;;8.00;99.90;;;;;;5095043;28;19938;-72
2022/04/21 15:02:57;;;;;;;;;;;8.00;99.90;;;;;;5113513;28;19920;-72
2022/04/21 15:05:22;;;;;;;;;;;8.00;99.90;;;;;;5094909;28;20355;-72
2022/04/21 15:07:48;;;;;;;;;;;8.00;99.90;;;;;;5113417;28;19992;-73
2022/04/21 15:10:13;;;;;;;;;;;8.00;99.90;;;;;;5113024;28;20283;-73
2022/04/21 15:12:39;;;;;;;;;;;8.10;99.90;;;;;;5113494;28;19927;-73
2022/04/21 15:15:05;;;;;;;;;;;8.00;99.90;;;;;;5113179;28;19958;-73
2022/04/21 15:17:30;;;;;;;;;;;8.00;99.90;;;;;;5094740;28;19924;-73
2022/04/21 15:19:56;;;;;;;;;;;8.00;99.90;;;;;;5113075;28;20311;-73
2022/04/21 15:22:22;;;;;;;;;;;8.00;99.90;;;;;;5113171;28;19920;-74
2022/04/21 15:24:52;;;;;;;;;;;8.00;99.90;;;;;;5094681;28;19919;-73
2022/04/21 15:27:21;;;;;;;;;;;8.00;99.90;;;;;;5094613;28;20407;-74
2022/04/21 15:29:47;;;;;;;;;;;8.00;99.90;;;;;;5113123;28;19908;-74
2022/04/21 15:32:13;;;;;;;;;;;7.90;99.90;;;;;;5113150;28;19915;-73
2022/04/21 15:34:38;;;;;;;;;;;7.80;99.90;;;;;;5112893;28;19922;-73
2022/04/21 15:37:06;;;;;;;;;;;7.80;99.90;;;;;;5094008;28;19920;-73